Plankton, Ohio
Current Conditions -  °F | °C
As of 1:53 PM on Friday 24 Oct 2014 (Local Time) from KMNN Reporting Station
Clear Clear  
Wind Chill: 60°   Ceiling: Unl
Heat Index: 60°   Visibility: 7mi
Dew Point: 40°   Wind: 3mph
Humidity: 47%   Direction: NA
Pressure: 30.06"   Gusts: NA
Location:  40.948°N, 83.1346°W
Report Text: KMNN 241753Z AUTO VRB03KT 7SM CLR 16/04 A3006 RMK AO2 SLP184 T01560044 10156 20033 58017 TSNO
Loading
Personal Weather Stations






























Interactive Weather Map
Tropical Storm Tracking
New forecast layout! Learn more

10-Day Weather Forecast

Advertisements
Track Severe Weather on mobile